Pasaia, Spain
Current Conditions -  °F | °C
As of 6:30 PM on Friday 21 Nov 2014 (Local Time) from LESO Reporting Station
Clear Clear  
Wind Chill: 68°   Ceiling: Unl
Heat Index: 68°   Visibility: 6mi
Dew Point: 52°   Wind: 7mph
Humidity: 56%   Direction: 150°SSE
Pressure: 29.91"   Gusts: NA
Location:  43.33°N, 1.93°W
Report Text: LESO 211730Z 15006KT 110V190 CAVOK 20/11 Q1013
Loading
Personal Weather Stations






























Interactive Weather Map New forecast layout! Learn more

10-Day Weather Forecast

Advertisements
Track Severe Weather on mobile